Parla, Spain
Current Conditions -  °F | °C
As of 7:00 AM on Saturday 25 Oct 2014 (Local Time) from LEGT Reporting Station
Clear Clear  
Wind Chill: 55°   Ceiling: Unl
Heat Index: 55°   Visibility: 6mi
Dew Point: 46°   Wind: 5mph
Humidity: 72%   Direction: 40°NE
Pressure: 30.15"   Gusts: NA
Location:  40.24°N, 3.77°W
Report Text: LEGT 250500Z 04004KT CAVOK 13/08 Q1021
Loading
Personal Weather Stations






























Interactive Weather Map
Tropical Storm Tracking
New forecast layout! Learn more

10-Day Weather Forecast

Advertisements
Track Severe Weather on mobile